Main page
METAR-TAF:

METAR-TAF

Airports :

Kuopio Airport

Kuopio, Finland

latitude: 63-01N, longitude: 027-48E, elevation: 98 m

Current weather observation

The report was made 24 minutes ago, at 16:50 UTC
Wind 4 kt from variable directions
Temperature 25°C
Humidity 39%
Pressure 1015 hPa
Visibility 10 km or more
no clouds below 1500 m and no cumulonimbus

METAR: EFKU 231650Z AUTO VRB04KT CAVOK 25/10 Q1015

Time: 20:14 (17:14 UTC)

Forecast

The report was made 2 hours and 50 minutes ago, at 14:24 UTC
Forecast valid from 23 at 15 UTC to 24 at 15 UTC
Wind 6 kt from the East
Visibility 10 km or more
no clouds below 1500 m and no cumulonimbus

TAF: EFKU 231424Z 2315/2415 10006KT CAVOK

Weather observations and forecasts of more than 4000 airports (METAR and TAF reports).

The available stations are represented by yellow and red dots on the map.

Hover mouse over dot to see the name of the station.

Then click to see weather observations and forecasts.

To change the map : click on the green buttons with a black cross to zoom in, on the green button with a dash to zoom out, or on the green arrows for adjacent maps.


METAR-TAF: